Terminal Aerodrome Forecast
Issued by NWS Sterling, VA

Home | Current Version | Previous Version | Text Only | Print | Product List | Glossary On
Versions: 1 2 3 4 5 6 7 8 9 10 11 12 13 14 15 16 17 18 19 20 21 22 23
000
FTUS41 KLWX 281139
TAFBWI
TAF
KBWI 281139Z 2812/2918 00000KT 5SM BR SCT006
     FM281300 00000KT P6SM SKC
     FM281800 10006KT P6SM SCT050
     FM290200 16006KT P6SM FEW050
     FM290800 00000KT P6SM FEW050
     FM291500 VRB03KT P6SM FEW250=

USA.gov is the U.S. government's official web portal to all federal, state and local government web resources and services.